createdAt,value
2024-02-14T00:01:49.789Z,8.25
2024-02-14T00:04:51.526Z,8.29
2024-02-14T00:07:53.397Z,8.25
2024-02-14T00:10:55.190Z,8.22
2024-02-14T00:13:57.764Z,8.28
2024-02-14T00:17:00.646Z,8.19
2024-02-14T00:20:04.288Z,8.20
2024-02-14T00:23:06.239Z,8.20
2024-02-14T00:26:07.984Z,8.17
2024-02-14T00:29:09.751Z,8.11
2024-02-14T00:32:12.866Z,8.11
2024-02-14T00:35:15.049Z,8.07
2024-02-14T00:38:17.087Z,8.10
2024-02-14T00:41:18.874Z,7.98
2024-02-14T00:44:20.790Z,8.03
2024-02-14T00:47:22.539Z,7.98
2024-02-14T00:50:24.364Z,7.94
2024-02-14T00:53:26.631Z,7.92
2024-02-14T00:56:28.447Z,7.83
2024-02-14T00:59:30.379Z,7.86
2024-02-14T01:02:32.237Z,7.79
2024-02-14T01:05:34.288Z,7.80
2024-02-14T01:08:37.495Z,7.75
2024-02-14T01:11:39.748Z,7.74
2024-02-14T01:14:41.636Z,7.59
2024-02-14T01:17:44.168Z,7.62
2024-02-14T01:20:46.057Z,7.59
2024-02-14T01:23:47.907Z,7.55
2024-02-14T01:26:51.931Z,7.52
2024-02-14T01:29:56.239Z,7.34
2024-02-14T01:32:58.085Z,7.37
2024-02-14T01:36:00.232Z,7.33
2024-02-14T01:39:02.127Z,7.30
2024-02-14T01:42:08.203Z,7.32
2024-02-14T01:45:10.430Z,7.21
2024-02-14T01:48:12.420Z,7.09
2024-02-14T01:51:14.975Z,7.14
2024-02-14T01:54:18.623Z,7.10
2024-02-14T01:57:21.072Z,7.16
2024-02-14T02:00:23.006Z,7.00
2024-02-14T02:03:26.026Z,6.98
2024-02-14T02:06:28.736Z,6.98
2024-02-14T02:09:32.684Z,7.12
2024-02-14T02:12:34.709Z,7.13
2024-02-14T02:15:36.463Z,7.13
2024-02-14T02:18:38.721Z,7.14
2024-02-14T02:21:40.697Z,7.14
2024-02-14T02:24:42.454Z,6.99
2024-02-14T02:27:44.214Z,6.93
2024-02-14T02:30:47.565Z,6.99
2024-02-14T02:33:50.691Z,6.94
2024-02-14T02:36:52.551Z,6.77
2024-02-14T02:39:54.758Z,6.87
2024-02-14T02:42:56.566Z,6.96
2024-02-14T02:45:59.204Z,6.86
2024-02-14T02:49:01.169Z,6.81
2024-02-14T02:52:04.095Z,6.62
2024-02-14T02:55:06.616Z,6.48
2024-02-14T02:58:08.628Z,6.37
2024-02-14T03:01:10.951Z,6.37
2024-02-14T03:04:14.683Z,6.21
2024-02-14T03:07:16.557Z,6.14
2024-02-14T03:10:22.344Z,5.93
2024-02-14T03:13:24.098Z,5.82
2024-02-14T03:16:26.006Z,5.76
2024-02-14T03:19:31.283Z,5.87
2024-02-14T03:22:33.092Z,5.95
2024-02-14T03:25:38.033Z,5.99
2024-02-14T03:28:40.307Z,5.99
2024-02-14T03:31:44.879Z,5.87
2024-02-14T03:34:46.703Z,5.70
2024-02-14T03:37:49.984Z,5.54
2024-02-14T03:40:51.899Z,5.48
2024-02-14T03:43:55.697Z,5.18
2024-02-14T03:46:57.669Z,5.18
2024-02-14T03:50:00.903Z,4.98
2024-02-14T03:53:04.606Z,5.00
2024-02-14T03:56:08.400Z,4.93
2024-02-14T03:59:10.209Z,4.94
2024-02-14T04:02:12.034Z,4.89
2024-02-14T04:05:13.887Z,4.71
2024-02-14T04:08:19.098Z,4.73
2024-02-14T04:11:20.940Z,4.66
2024-02-14T04:14:22.765Z,4.67
2024-02-14T04:17:25.732Z,4.57
2024-02-14T04:20:27.804Z,4.36
2024-02-14T04:23:29.696Z,4.17
2024-02-14T04:26:31.567Z,4.15
2024-02-14T04:29:35.139Z,4.14
2024-02-14T04:32:37.450Z,4.11
2024-02-14T04:35:39.351Z,4.11
2024-02-14T04:38:42.089Z,3.93
2024-02-14T04:41:53.967Z,3.95
2024-02-14T04:44:59.673Z,3.87
2024-02-14T04:48:01.544Z,3.79
2024-02-14T04:51:05.554Z,3.83
2024-02-14T04:54:08.772Z,3.80
2024-02-14T04:57:10.686Z,3.81
2024-02-14T05:00:13.219Z,3.68
2024-02-14T05:03:15.150Z,3.68
2024-02-14T05:06:17.298Z,3.62
2024-02-14T05:09:19.444Z,3.39
2024-02-14T05:12:21.596Z,3.35
2024-02-14T05:15:23.543Z,3.45
2024-02-14T05:18:25.378Z,3.36
2024-02-14T05:21:28.380Z,3.19
2024-02-14T05:24:30.488Z,3.22
2024-02-14T05:27:32.437Z,3.17
2024-02-14T05:30:34.325Z,3.13
2024-02-14T05:33:37.048Z,3.15
2024-02-14T05:36:39.391Z,3.19
2024-02-14T05:39:41.155Z,2.93
2024-02-14T05:42:45.726Z,2.91
2024-02-14T05:45:48.645Z,2.75
2024-02-14T05:48:50.515Z,2.79
2024-02-14T05:51:54.397Z,2.78
2024-02-14T05:54:58.436Z,2.67
2024-02-14T05:58:00.615Z,2.73
2024-02-14T06:01:02.633Z,2.64
2024-02-14T06:04:04.784Z,2.59
2024-02-14T06:07:08.072Z,2.53
2024-02-14T06:10:10.740Z,2.67
2024-02-14T06:13:12.650Z,2.75
2024-02-14T06:16:15.179Z,2.84
2024-02-14T06:19:17.193Z,2.92
2024-02-14T06:22:19.024Z,3.02
2024-02-14T06:25:20.847Z,3.05
2024-02-14T06:28:22.721Z,2.83
2024-02-14T06:31:25.017Z,3.03
2024-02-14T06:34:29.005Z,3.11
2024-02-14T06:37:34.947Z,3.32
2024-02-14T06:40:41.624Z,3.52
2024-02-14T06:43:43.469Z,3.84
2024-02-14T06:46:45.697Z,3.97
2024-02-14T06:49:47.740Z,4.13
2024-02-14T06:52:50.033Z,4.21
2024-02-14T06:55:52.681Z,4.44
2024-02-14T06:59:02.505Z,4.57
2024-02-14T07:02:13.368Z,4.87
2024-02-14T07:05:17.460Z,4.99
2024-02-14T07:08:23.341Z,4.93
2024-02-14T07:11:26.651Z,4.91
2024-02-14T07:14:30.348Z,4.99
2024-02-14T07:17:34.729Z,5.15
2024-02-14T07:20:38.368Z,5.28
2024-02-14T07:23:43.128Z,5.34
2024-02-14T07:26:48.272Z,5.49
2024-02-14T07:29:52.644Z,5.56
2024-02-14T07:32:55.367Z,5.86
2024-02-14T07:35:57.995Z,6.01
2024-02-14T07:39:00.401Z,6.42
2024-02-14T07:42:04.097Z,6.80
2024-02-14T07:45:06.704Z,7.42
2024-02-14T07:48:09.727Z,7.55
2024-02-14T07:51:12.021Z,8.09
2024-02-14T07:54:25.518Z,8.32
2024-02-14T07:57:28.799Z,8.54
2024-02-14T08:00:30.653Z,8.48
2024-02-14T08:03:36.014Z,8.75
2024-02-14T08:06:42.114Z,9.20
2024-02-14T08:09:45.296Z,9.74
2024-02-14T08:12:48.641Z,10.09
2024-02-14T08:15:51.034Z,10.57
2024-02-14T08:19:00.045Z,11.41
2024-02-14T08:22:02.566Z,12.03
2024-02-14T08:25:04.679Z,12.73
2024-02-14T08:28:08.818Z,13.19
2024-02-14T08:31:15.523Z,13.49
2024-02-14T08:34:17.708Z,13.54
2024-02-14T08:37:19.679Z,13.87
2024-02-14T08:40:21.545Z,13.49
2024-02-14T08:43:26.190Z,13.34
2024-02-14T08:46:30.210Z,12.93
2024-02-14T08:49:32.050Z,12.79
2024-02-14T08:52:33.927Z,12.33
2024-02-14T08:55:37.827Z,12.16
2024-02-14T08:58:39.824Z,12.28
2024-02-14T09:01:41.911Z,12.57
2024-02-14T09:04:45.540Z,12.99
2024-02-14T09:07:47.626Z,13.01
2024-02-14T09:10:49.766Z,12.71
2024-02-14T09:13:55.390Z,13.21
2024-02-14T09:16:57.820Z,13.03
2024-02-14T09:19:59.621Z,12.77
2024-02-14T09:23:01.924Z,12.11
2024-02-14T09:26:04.091Z,11.99
2024-02-14T09:29:06.433Z,12.10
2024-02-14T09:32:09.115Z,12.21
2024-02-14T09:35:11.397Z,12.49
2024-02-14T09:38:15.912Z,13.21
2024-02-14T09:41:37.374Z,13.97
2024-02-14T09:44:40.251Z,13.73
2024-02-14T09:47:45.925Z,13.11
2024-02-14T09:50:49.993Z,12.99
2024-02-14T09:53:58.031Z,13.42
2024-02-14T09:57:00.598Z,13.52
2024-02-14T10:00:04.069Z,13.82
2024-02-14T10:03:07.866Z,14.52
2024-02-14T10:06:10.646Z,15.28
2024-02-14T10:09:20.369Z,15.92
2024-02-14T10:12:22.242Z,16.46
2024-02-14T10:15:24.115Z,16.34
2024-02-14T10:18:33.175Z,16.35
2024-02-14T10:21:35.069Z,16.55
2024-02-14T10:24:36.946Z,16.90
2024-02-14T10:27:39.966Z,17.33
2024-02-14T10:30:43.324Z,17.72
2024-02-14T10:33:45.723Z,17.72
2024-02-14T10:36:48.843Z,17.86
2024-02-14T10:39:54.542Z,16.94
2024-02-14T10:42:59.652Z,16.62
2024-02-14T10:46:08.938Z,16.33
2024-02-14T10:49:13.044Z,16.21
2024-02-14T10:52:19.081Z,16.61
2024-02-14T10:55:23.728Z,16.79
2024-02-14T10:58:29.310Z,17.14
2024-02-14T11:01:33.476Z,17.45
2024-02-14T11:04:35.831Z,17.52
2024-02-14T11:07:44.749Z,17.95
2024-02-14T11:10:55.150Z,17.98
2024-02-14T11:13:57.316Z,17.48
2024-02-14T11:17:00.781Z,17.62
2024-02-14T11:20:22.773Z,17.91
2024-02-14T11:23:25.915Z,18.25
2024-02-14T11:26:29.321Z,18.69
2024-02-14T11:29:34.109Z,19.30
2024-02-14T11:32:36.002Z,18.77
2024-02-14T11:35:43.511Z,17.62
2024-02-14T11:38:45.475Z,18.50
2024-02-14T11:41:47.310Z,19.67
2024-02-14T11:44:50.115Z,19.77
2024-02-14T11:47:52.111Z,19.82
2024-02-14T11:51:02.406Z,20.30
2024-02-14T11:54:08.754Z,21.05
2024-02-14T11:57:11.014Z,21.45
2024-02-14T12:00:13.497Z,22.07
2024-02-14T12:03:22.061Z,22.57
2024-02-14T12:06:24.348Z,22.35
2024-02-14T12:09:28.296Z,22.55
2024-02-14T12:12:31.339Z,22.37
2024-02-14T12:15:38.703Z,22.32
2024-02-14T12:18:41.311Z,22.73
2024-02-14T12:21:46.785Z,23.49
2024-02-14T12:24:49.301Z,22.34
2024-02-14T12:27:52.777Z,21.62
2024-02-14T12:30:57.786Z,21.13
2024-02-14T12:34:02.913Z,19.80
2024-02-14T12:37:06.687Z,21.15
2024-02-14T12:40:09.482Z,21.98
2024-02-14T12:43:12.969Z,22.22
2024-02-14T12:46:14.965Z,21.64
2024-02-14T12:49:19.256Z,21.53
2024-02-14T12:52:21.424Z,22.21
2024-02-14T12:56:08.861Z,22.43
2024-02-14T12:59:22.052Z,21.68
2024-02-14T13:02:23.845Z,22.11
2024-02-14T13:05:26.930Z,22.39
2024-02-14T13:08:29.170Z,22.25
2024-02-14T13:11:33.011Z,22.52
2024-02-14T13:14:34.915Z,22.68
2024-02-14T13:17:36.907Z,20.33
2024-02-14T13:20:40.178Z,20.77
2024-02-14T13:23:42.124Z,20.70
2024-02-14T13:26:44.010Z,19.44
2024-02-14T13:29:45.852Z,18.78
2024-02-14T13:32:48.175Z,19.27
2024-02-14T13:35:50.174Z,19.60
2024-02-14T13:38:52.078Z,19.48
2024-02-14T13:41:54.099Z,19.58
2024-02-14T13:44:56.108Z,19.80
2024-02-14T13:48:09.194Z,20.11
2024-02-14T13:51:11.354Z,20.53
2024-02-14T13:54:13.316Z,19.89
2024-02-14T13:57:15.679Z,19.85
2024-02-14T14:00:18.410Z,19.36
2024-02-14T14:03:20.297Z,19.36
2024-02-14T14:06:25.327Z,19.37
2024-02-14T14:09:27.808Z,19.43
2024-02-14T14:12:29.641Z,18.87
2024-02-14T14:15:33.935Z,18.59
2024-02-14T14:18:36.758Z,17.89
2024-02-14T14:21:39.545Z,17.02
2024-02-14T14:24:41.413Z,15.22
2024-02-14T14:27:44.194Z,14.38
2024-02-14T14:30:46.326Z,13.56
2024-02-14T14:33:48.303Z,13.11
2024-02-14T14:36:50.231Z,12.86
2024-02-14T14:39:52.015Z,12.47
2024-02-14T14:42:54.054Z,11.96
2024-02-14T14:45:58.252Z,11.96
2024-02-14T14:49:00.287Z,11.90
2024-02-14T14:52:05.519Z,11.71
2024-02-14T14:55:07.700Z,11.56
2024-02-14T14:58:14.752Z,11.83
2024-02-14T15:01:16.590Z,11.92
2024-02-14T15:04:21.087Z,11.94
2024-02-14T15:07:23.203Z,11.85
2024-02-14T15:10:25.553Z,11.86
2024-02-14T15:13:28.678Z,11.84
2024-02-14T15:16:31.693Z,11.77
2024-02-14T15:19:33.681Z,11.77
2024-02-14T15:22:35.568Z,11.72
2024-02-14T15:25:37.690Z,11.57
2024-02-14T15:28:42.839Z,11.52
2024-02-14T15:32:03.487Z,11.50
2024-02-14T15:35:06.072Z,11.09
2024-02-14T15:38:08.001Z,10.85
2024-02-14T15:41:10.751Z,10.49
2024-02-14T15:44:13.082Z,10.50
2024-02-14T15:47:15.157Z,10.25
2024-02-14T15:50:17.435Z,10.02
2024-02-14T15:53:20.191Z,9.92
2024-02-14T15:56:22.285Z,9.73
2024-02-14T15:59:24.070Z,9.68
2024-02-14T16:02:26.137Z,9.57
2024-02-14T16:05:29.071Z,9.48
2024-02-14T16:08:30.995Z,9.40
2024-02-14T16:11:33.142Z,9.37
2024-02-14T16:14:34.997Z,9.46
2024-02-14T16:17:37.078Z,9.30
2024-02-14T16:20:39.062Z,9.12
2024-02-14T16:23:41.932Z,8.96
2024-02-14T16:26:45.011Z,8.98
2024-02-14T16:29:46.922Z,8.90
2024-02-14T16:32:49.079Z,8.77
2024-02-14T16:35:51.188Z,8.64
2024-02-14T16:38:52.985Z,8.56
2024-02-14T16:41:54.902Z,8.52
2024-02-14T16:44:56.705Z,8.44
2024-02-14T16:47:58.827Z,8.34
2024-02-14T16:51:00.650Z,8.28
2024-02-14T16:54:02.545Z,8.25
2024-02-14T16:57:10.847Z,8.16
2024-02-14T17:00:14.492Z,8.12
2024-02-14T17:03:17.475Z,8.07
2024-02-14T17:06:20.623Z,7.95
2024-02-14T17:09:22.940Z,7.58
2024-02-14T17:12:24.929Z,7.61
2024-02-14T17:15:27.096Z,7.56
2024-02-14T17:18:30.548Z,7.48
2024-02-14T17:21:32.687Z,7.24
2024-02-14T17:24:34.725Z,7.26
2024-02-14T17:27:36.723Z,7.16
2024-02-14T17:30:40.244Z,7.13
2024-02-14T17:33:43.719Z,7.02
2024-02-14T17:36:46.127Z,6.98
2024-02-14T17:39:48.218Z,6.97
2024-02-14T17:42:51.323Z,6.85
2024-02-14T17:45:53.083Z,6.89
2024-02-14T17:48:56.282Z,6.88
2024-02-14T17:51:59.632Z,6.75
2024-02-14T17:55:04.956Z,6.75
2024-02-14T17:58:07.451Z,6.75
2024-02-14T18:01:10.546Z,6.62
2024-02-14T18:04:12.409Z,6.43
2024-02-14T18:07:15.088Z,6.20
2024-02-14T18:10:17.492Z,6.18
2024-02-14T18:13:19.271Z,6.25
2024-02-14T18:16:21.428Z,6.24
2024-02-14T18:19:23.332Z,6.09
2024-02-14T18:22:25.132Z,5.92
2024-02-14T18:25:26.876Z,5.74
2024-02-14T18:28:31.659Z,5.69
2024-02-14T18:31:33.511Z,5.63
2024-02-14T18:34:35.389Z,5.58
2024-02-14T18:37:37.417Z,5.58
2024-02-14T18:40:43.054Z,5.42
2024-02-14T18:43:44.900Z,5.32
2024-02-14T18:46:47.847Z,5.34
2024-02-14T18:49:50.077Z,5.35
2024-02-14T18:52:52.318Z,5.25
2024-02-14T18:55:56.422Z,5.31
2024-02-14T18:58:58.423Z,5.47
2024-02-14T19:02:00.503Z,5.50
2024-02-14T19:05:02.639Z,5.62
2024-02-14T19:08:05.324Z,5.69
2024-02-14T19:11:07.793Z,5.70
2024-02-14T19:14:09.790Z,5.59
2024-02-14T19:17:11.917Z,5.64
2024-02-14T19:20:13.804Z,5.55
2024-02-14T19:23:15.579Z,5.50
2024-02-14T19:26:17.574Z,5.53
2024-02-14T19:29:20.293Z,5.43
2024-02-14T19:32:22.186Z,5.43
2024-02-14T19:35:24.233Z,5.29
2024-02-14T19:38:26.423Z,5.27
2024-02-14T19:41:28.460Z,5.06
2024-02-14T19:44:30.257Z,4.97
2024-02-14T19:47:33.991Z,5.04
2024-02-14T19:50:35.900Z,4.83
2024-02-14T19:53:37.853Z,4.72
2024-02-14T19:56:39.727Z,4.86
2024-02-14T19:59:41.669Z,4.62
2024-02-14T20:02:43.661Z,4.55
2024-02-14T20:05:47.193Z,4.68
2024-02-14T20:08:49.533Z,4.70
2024-02-14T20:11:51.486Z,4.50
2024-02-14T20:14:53.660Z,4.37
2024-02-14T20:17:55.641Z,4.39
2024-02-14T20:20:58.674Z,4.16
2024-02-14T20:24:01.086Z,4.24
2024-02-14T20:27:04.664Z,4.12
2024-02-14T20:30:11.793Z,4.22
2024-02-14T20:33:13.938Z,4.21
2024-02-14T20:36:15.882Z,4.32
2024-02-14T20:39:17.959Z,4.37
2024-02-14T20:42:21.546Z,4.24
2024-02-14T20:45:24.864Z,4.16
2024-02-14T20:48:26.844Z,3.92
2024-02-14T20:51:29.354Z,3.90
2024-02-14T20:54:31.137Z,4.00
2024-02-14T20:57:34.233Z,4.05
2024-02-14T21:00:36.470Z,4.12
2024-02-14T21:03:38.583Z,4.20
2024-02-14T21:06:40.783Z,4.24
2024-02-14T21:09:45.908Z,4.25
2024-02-14T21:12:47.671Z,4.15
2024-02-14T21:15:49.716Z,3.92
2024-02-14T21:18:51.822Z,3.91
2024-02-14T21:21:53.654Z,3.93
2024-02-14T21:24:55.440Z,4.01
2024-02-14T21:27:57.482Z,4.03
2024-02-14T21:31:00.136Z,4.06
2024-02-14T21:34:03.648Z,4.00
2024-02-14T21:37:05.677Z,3.92
2024-02-14T21:40:08.938Z,3.87
2024-02-14T21:43:10.743Z,3.87
2024-02-14T21:46:12.490Z,3.82
2024-02-14T21:49:21.571Z,3.54
2024-02-14T21:52:23.781Z,3.68
2024-02-14T21:55:25.580Z,3.60
2024-02-14T21:58:27.359Z,3.46
2024-02-14T22:01:29.295Z,3.44
2024-02-14T22:04:31.650Z,3.33
2024-02-14T22:07:33.502Z,3.32
2024-02-14T22:10:35.813Z,3.39
2024-02-14T22:13:39.483Z,3.05
2024-02-14T22:16:41.433Z,3.13
2024-02-14T22:19:43.931Z,3.11
2024-02-14T22:22:45.762Z,3.13
2024-02-14T22:25:47.969Z,3.08
2024-02-14T22:28:50.090Z,3.09
2024-02-14T22:31:53.547Z,3.27
2024-02-14T22:34:55.375Z,3.21
2024-02-14T22:37:57.380Z,3.24
2024-02-14T22:40:59.137Z,3.23
2024-02-14T22:44:00.958Z,3.27
2024-02-14T22:47:02.718Z,3.35
2024-02-14T22:50:05.395Z,3.26
2024-02-14T22:53:07.240Z,3.20
2024-02-14T22:56:11.184Z,3.16
2024-02-14T22:59:13.062Z,3.19
2024-02-14T23:02:15.130Z,3.20
2024-02-14T23:05:21.255Z,3.04
2024-02-14T23:08:23.171Z,2.96
2024-02-14T23:11:27.374Z,3.03
2024-02-14T23:14:29.337Z,3.06
2024-02-14T23:17:32.277Z,3.05
2024-02-14T23:20:34.342Z,2.91
2024-02-14T23:23:36.418Z,2.91
2024-02-14T23:26:38.592Z,2.94
2024-02-14T23:29:40.434Z,3.01
2024-02-14T23:32:42.851Z,3.05
2024-02-14T23:35:44.915Z,2.93
2024-02-14T23:38:46.728Z,2.88
2024-02-14T23:41:48.548Z,2.82
2024-02-14T23:44:51.331Z,3.03
2024-02-14T23:47:55.074Z,3.02
2024-02-14T23:50:59.345Z,3.03
2024-02-14T23:54:01.536Z,2.85
2024-02-14T23:57:04.775Z,2.75
